sensor_id;sensor_type;location;lat;lon;timestamp;temperature;humidity
14236;DHT22;7202;50.718;7.072;2023-07-24T00:01:13;18.00;99.90
14236;DHT22;7202;50.718;7.072;2023-07-24T00:03:42;18.00;99.90
14236;DHT22;7202;50.718;7.072;2023-07-24T00:06:11;18.00;99.90
14236;DHT22;7202;50.718;7.072;2023-07-24T00:08:39;18.00;99.90
14236;DHT22;7202;50.718;7.072;2023-07-24T00:11:09;18.00;99.90
14236;DHT22;7202;50.718;7.072;2023-07-24T00:13:38;18.00;99.90
14236;DHT22;7202;50.718;7.072;2023-07-24T00:16:07;18.00;99.90
14236;DHT22;7202;50.718;7.072;2023-07-24T00:18:36;18.00;99.90
14236;DHT22;7202;50.718;7.072;2023-07-24T00:21:04;18.00;99.90
14236;DHT22;7202;50.718;7.072;2023-07-24T00:23:33;18.00;99.90
14236;DHT22;7202;50.718;7.072;2023-07-24T00:26:01;18.00;99.90
14236;DHT22;7202;50.718;7.072;2023-07-24T00:28:32;18.00;99.90
14236;DHT22;7202;50.718;7.072;2023-07-24T00:31:01;18.00;99.90
14236;DHT22;7202;50.718;7.072;2023-07-24T00:33:30;17.90;99.90
14236;DHT22;7202;50.718;7.072;2023-07-24T00:35:58;17.90;99.90
14236;DHT22;7202;50.718;7.072;2023-07-24T00:38:28;17.90;99.90
14236;DHT22;7202;50.718;7.072;2023-07-24T00:40:58;17.90;99.90
14236;DHT22;7202;50.718;7.072;2023-07-24T00:43:26;17.90;99.90
14236;DHT22;7202;50.718;7.072;2023-07-24T00:45:56;17.90;99.90
14236;DHT22;7202;50.718;7.072;2023-07-24T00:48:25;17.80;99.90
14236;DHT22;7202;50.718;7.072;2023-07-24T00:50:54;17.70;99.90
14236;DHT22;7202;50.718;7.072;2023-07-24T00:53:23;17.80;99.90
14236;DHT22;7202;50.718;7.072;2023-07-24T00:55:52;17.80;99.90
14236;DHT22;7202;50.718;7.072;2023-07-24T00:58:21;17.80;99.90
14236;DHT22;7202;50.718;7.072;2023-07-24T01:00:50;17.80;99.90
14236;DHT22;7202;50.718;7.072;2023-07-24T01:03:22;17.80;99.90
14236;DHT22;7202;50.718;7.072;2023-07-24T01:05:56;17.90;99.90
14236;DHT22;7202;50.718;7.072;2023-07-24T01:08:25;17.80;99.90
14236;DHT22;7202;50.718;7.072;2023-07-24T01:10:58;17.80;99.90
14236;DHT22;7202;50.718;7.072;2023-07-24T01:13:32;17.80;99.90
14236;DHT22;7202;50.718;7.072;2023-07-24T01:16:08;17.80;99.90
14236;DHT22;7202;50.718;7.072;2023-07-24T01:18:39;17.80;99.90
14236;DHT22;7202;50.718;7.072;2023-07-24T01:21:09;17.80;99.90
14236;DHT22;7202;50.718;7.072;2023-07-24T01:23:48;17.80;99.90
14236;DHT22;7202;50.718;7.072;2023-07-24T01:26:21;17.80;99.90
14236;DHT22;7202;50.718;7.072;2023-07-24T01:28:51;17.90;99.90
14236;DHT22;7202;50.718;7.072;2023-07-24T01:31:20;17.90;99.90
14236;DHT22;7202;50.718;7.072;2023-07-24T01:33:49;17.90;99.90
14236;DHT22;7202;50.718;7.072;2023-07-24T01:36:18;17.90;99.90
14236;DHT22;7202;50.718;7.072;2023-07-24T01:38:47;17.90;99.90
14236;DHT22;7202;50.718;7.072;2023-07-24T01:41:17;17.90;99.90
14236;DHT22;7202;50.718;7.072;2023-07-24T01:43:47;17.90;99.90
14236;DHT22;7202;50.718;7.072;2023-07-24T01:46:15;17.90;99.90
14236;DHT22;7202;50.718;7.072;2023-07-24T01:48:44;17.90;99.90
14236;DHT22;7202;50.718;7.072;2023-07-24T01:51:13;17.90;99.90
14236;DHT22;7202;50.718;7.072;2023-07-24T01:53:42;17.90;99.90
14236;DHT22;7202;50.718;7.072;2023-07-24T01:56:10;17.90;99.90
14236;DHT22;7202;50.718;7.072;2023-07-24T01:58:39;17.90;99.90
14236;DHT22;7202;50.718;7.072;2023-07-24T02:01:09;17.90;99.90
14236;DHT22;7202;50.718;7.072;2023-07-24T02:03:38;18.00;99.90
14236;DHT22;7202;50.718;7.072;2023-07-24T02:06:07;18.00;99.90
14236;DHT22;7202;50.718;7.072;2023-07-24T02:08:36;17.90;99.90
14236;DHT22;7202;50.718;7.072;2023-07-24T02:11:04;18.00;99.90
14236;DHT22;7202;50.718;7.072;2023-07-24T02:13:33;18.00;99.90
14236;DHT22;7202;50.718;7.072;2023-07-24T02:16:01;18.00;99.90
14236;DHT22;7202;50.718;7.072;2023-07-24T02:18:31;18.00;99.90
14236;DHT22;7202;50.718;7.072;2023-07-24T02:21:00;18.00;99.90
14236;DHT22;7202;50.718;7.072;2023-07-24T02:23:28;18.00;99.90
14236;DHT22;7202;50.718;7.072;2023-07-24T02:25:57;18.00;99.90
14236;DHT22;7202;50.718;7.072;2023-07-24T02:28:26;18.00;99.90
14236;DHT22;7202;50.718;7.072;2023-07-24T02:30:55;18.00;99.90
14236;DHT22;7202;50.718;7.072;2023-07-24T02:33:26;18.00;99.90
14236;DHT22;7202;50.718;7.072;2023-07-24T02:35:55;18.00;99.90
14236;DHT22;7202;50.718;7.072;2023-07-24T02:38:24;18.00;99.90
14236;DHT22;7202;50.718;7.072;2023-07-24T02:40:53;18.00;99.90
14236;DHT22;7202;50.718;7.072;2023-07-24T02:43:21;18.00;99.90
14236;DHT22;7202;50.718;7.072;2023-07-24T02:45:50;18.00;99.90
14236;DHT22;7202;50.718;7.072;2023-07-24T02:48:18;18.00;99.90
14236;DHT22;7202;50.718;7.072;2023-07-24T02:50:47;18.00;99.90
14236;DHT22;7202;50.718;7.072;2023-07-24T02:53:17;17.90;99.90
14236;DHT22;7202;50.718;7.072;2023-07-24T02:55:46;17.90;99.90
14236;DHT22;7202;50.718;7.072;2023-07-24T02:58:15;17.90;99.90
14236;DHT22;7202;50.718;7.072;2023-07-24T03:00:44;17.90;99.90
14236;DHT22;7202;50.718;7.072;2023-07-24T03:03:12;17.90;99.90
14236;DHT22;7202;50.718;7.072;2023-07-24T03:05:41;17.90;99.90
14236;DHT22;7202;50.718;7.072;2023-07-24T03:08:10;17.90;99.90
14236;DHT22;7202;50.718;7.072;2023-07-24T03:10:41;18.00;99.90
14236;DHT22;7202;50.718;7.072;2023-07-24T03:13:10;17.90;99.90
14236;DHT22;7202;50.718;7.072;2023-07-24T03:15:38;17.90;99.90
14236;DHT22;7202;50.718;7.072;2023-07-24T03:18:07;17.90;99.90
14236;DHT22;7202;50.718;7.072;2023-07-24T03:20:36;18.00;99.90
14236;DHT22;7202;50.718;7.072;2023-07-24T03:23:04;17.90;99.90
14236;DHT22;7202;50.718;7.072;2023-07-24T03:25:33;17.90;99.90
14236;DHT22;7202;50.718;7.072;2023-07-24T03:28:04;17.90;99.90
14236;DHT22;7202;50.718;7.072;2023-07-24T03:30:33;18.00;99.90
14236;DHT22;7202;50.718;7.072;2023-07-24T03:33:02;17.90;99.90
14236;DHT22;7202;50.718;7.072;2023-07-24T03:35:30;17.80;99.90
14236;DHT22;7202;50.718;7.072;2023-07-24T03:37:59;17.80;99.90
14236;DHT22;7202;50.718;7.072;2023-07-24T03:40:28;17.70;99.90
14236;DHT22;7202;50.718;7.072;2023-07-24T03:42:57;17.80;99.90
14236;DHT22;7202;50.718;7.072;2023-07-24T03:45:27;17.80;99.90
14236;DHT22;7202;50.718;7.072;2023-07-24T03:47:56;17.70;99.90
14236;DHT22;7202;50.718;7.072;2023-07-24T03:50:24;17.70;99.90
14236;DHT22;7202;50.718;7.072;2023-07-24T03:52:53;17.70;99.90
14236;DHT22;7202;50.718;7.072;2023-07-24T03:55:22;17.70;99.90
14236;DHT22;7202;50.718;7.072;2023-07-24T03:57:50;17.60;99.90
14236;DHT22;7202;50.718;7.072;2023-07-24T04:00:19;17.70;99.90
14236;DHT22;7202;50.718;7.072;2023-07-24T04:02:49;17.60;99.90
14236;DHT22;7202;50.718;7.072;2023-07-24T04:05:18;17.60;99.90
14236;DHT22;7202;50.718;7.072;2023-07-24T04:07:46;17.70;99.90
14236;DHT22;7202;50.718;7.072;2023-07-24T04:10:15;17.60;99.90
14236;DHT22;7202;50.718;7.072;2023-07-24T04:12:43;17.60;99.90
14236;DHT22;7202;50.718;7.072;2023-07-24T04:15:15;17.60;99.90
14236;DHT22;7202;50.718;7.072;2023-07-24T04:17:44;17.60;99.90
14236;DHT22;7202;50.718;7.072;2023-07-24T04:20:14;17.60;99.90
14236;DHT22;7202;50.718;7.072;2023-07-24T04:22:42;17.60;99.90
14236;DHT22;7202;50.718;7.072;2023-07-24T04:25:11;17.60;99.90
14236;DHT22;7202;50.718;7.072;2023-07-24T04:27:39;17.60;99.90
14236;DHT22;7202;50.718;7.072;2023-07-24T04:30:08;17.60;99.90
14236;DHT22;7202;50.718;7.072;2023-07-24T04:32:37;17.70;99.90
14236;DHT22;7202;50.718;7.072;2023-07-24T04:35:06;17.70;99.90
14236;DHT22;7202;50.718;7.072;2023-07-24T04:37:36;17.70;99.90
14236;DHT22;7202;50.718;7.072;2023-07-24T04:40:06;17.70;99.90
14236;DHT22;7202;50.718;7.072;2023-07-24T04:42:35;17.70;99.90
14236;DHT22;7202;50.718;7.072;2023-07-24T04:45:04;17.80;99.90
14236;DHT22;7202;50.718;7.072;2023-07-24T04:47:32;17.80;99.90
14236;DHT22;7202;50.718;7.072;2023-07-24T04:50:01;17.80;99.90
14236;DHT22;7202;50.718;7.072;2023-07-24T04:52:30;17.80;99.90
14236;DHT22;7202;50.718;7.072;2023-07-24T04:55:00;17.80;99.90
14236;DHT22;7202;50.718;7.072;2023-07-24T04:57:28;17.80;99.90
14236;DHT22;7202;50.718;7.072;2023-07-24T04:59:57;17.90;99.90
14236;DHT22;7202;50.718;7.072;2023-07-24T05:02:26;17.90;99.90
14236;DHT22;7202;50.718;7.072;2023-07-24T05:04:54;17.90;99.90
14236;DHT22;7202;50.718;7.072;2023-07-24T05:07:23;17.90;99.90
14236;DHT22;7202;50.718;7.072;2023-07-24T05:09:51;17.90;99.90
14236;DHT22;7202;50.718;7.072;2023-07-24T05:12:21;18.00;99.90
14236;DHT22;7202;50.718;7.072;2023-07-24T05:14:50;18.00;99.90
14236;DHT22;7202;50.718;7.072;2023-07-24T05:17:18;18.00;99.90
14236;DHT22;7202;50.718;7.072;2023-07-24T05:19:47;18.00;99.90
14236;DHT22;7202;50.718;7.072;2023-07-24T05:22:16;18.00;99.90
14236;DHT22;7202;50.718;7.072;2023-07-24T05:24:44;18.10;99.90
14236;DHT22;7202;50.718;7.072;2023-07-24T05:27:13;18.10;99.90
14236;DHT22;7202;50.718;7.072;2023-07-24T05:29:44;18.20;99.90
14236;DHT22;7202;50.718;7.072;2023-07-24T05:32:13;18.30;99.90
14236;DHT22;7202;50.718;7.072;2023-07-24T05:34:41;18.30;99.90
14236;DHT22;7202;50.718;7.072;2023-07-24T05:37:12;18.40;99.90
14236;DHT22;7202;50.718;7.072;2023-07-24T05:39:41;18.50;99.90
14236;DHT22;7202;50.718;7.072;2023-07-24T05:42:10;18.70;99.90
14236;DHT22;7202;50.718;7.072;2023-07-24T05:44:38;18.80;99.90
14236;DHT22;7202;50.718;7.072;2023-07-24T05:47:08;19.00;99.90
14236;DHT22;7202;50.718;7.072;2023-07-24T05:49:37;19.20;99.90
14236;DHT22;7202;50.718;7.072;2023-07-24T05:52:09;19.40;99.90
14236;DHT22;7202;50.718;7.072;2023-07-24T05:54:37;19.50;99.90
14236;DHT22;7202;50.718;7.072;2023-07-24T05:57:06;19.50;99.90
14236;DHT22;7202;50.718;7.072;2023-07-24T05:59:35;19.60;99.90
14236;DHT22;7202;50.718;7.072;2023-07-24T06:02:03;19.50;99.90
14236;DHT22;7202;50.718;7.072;2023-07-24T06:04:33;19.50;99.90
14236;DHT22;7202;50.718;7.072;2023-07-24T06:07:03;19.50;99.90
14236;DHT22;7202;50.718;7.072;2023-07-24T06:09:31;19.60;99.90
14236;DHT22;7202;50.718;7.072;2023-07-24T06:12:00;19.60;99.90
14236;DHT22;7202;50.718;7.072;2023-07-24T06:14:28;19.60;99.90
14236;DHT22;7202;50.718;7.072;2023-07-24T06:16:57;19.70;99.90
14236;DHT22;7202;50.718;7.072;2023-07-24T06:19:26;19.70;99.90
14236;DHT22;7202;50.718;7.072;2023-07-24T06:21:56;19.90;99.90
14236;DHT22;7202;50.718;7.072;2023-07-24T06:24:24;19.90;99.90
14236;DHT22;7202;50.718;7.072;2023-07-24T06:26:53;19.90;99.90
14236;DHT22;7202;50.718;7.072;2023-07-24T06:29:21;20.00;99.90
14236;DHT22;7202;50.718;7.072;2023-07-24T06:31:50;20.00;99.90
14236;DHT22;7202;50.718;7.072;2023-07-24T06:34:19;20.00;99.90
14236;DHT22;7202;50.718;7.072;2023-07-24T06:36:47;20.10;99.90
14236;DHT22;7202;50.718;7.072;2023-07-24T06:39:17;20.20;99.90
14236;DHT22;7202;50.718;7.072;2023-07-24T06:41:46;20.20;99.90
14236;DHT22;7202;50.718;7.072;2023-07-24T06:44:15;20.30;99.90
14236;DHT22;7202;50.718;7.072;2023-07-24T06:46:43;20.30;99.90
14236;DHT22;7202;50.718;7.072;2023-07-24T06:49:12;20.30;99.90
14236;DHT22;7202;50.718;7.072;2023-07-24T06:51:40;20.30;99.90
14236;DHT22;7202;50.718;7.072;2023-07-24T06:54:09;20.30;99.90
14236;DHT22;7202;50.718;7.072;2023-07-24T06:56:39;20.30;99.90
14236;DHT22;7202;50.718;7.072;2023-07-24T06:59:08;20.30;99.90
14236;DHT22;7202;50.718;7.072;2023-07-24T07:01:39;20.30;99.90
14236;DHT22;7202;50.718;7.072;2023-07-24T07:04:07;20.30;99.90
14236;DHT22;7202;50.718;7.072;2023-07-24T07:06:36;20.40;99.90
14236;DHT22;7202;50.718;7.072;2023-07-24T07:09:05;20.50;99.90
14236;DHT22;7202;50.718;7.072;2023-07-24T07:11:35;20.50;99.90
14236;DHT22;7202;50.718;7.072;2023-07-24T07:14:04;20.50;99.90
14236;DHT22;7202;50.718;7.072;2023-07-24T07:16:36;20.50;99.90
14236;DHT22;7202;50.718;7.072;2023-07-24T07:19:04;20.50;99.90
14236;DHT22;7202;50.718;7.072;2023-07-24T07:21:33;20.50;99.90
14236;DHT22;7202;50.718;7.072;2023-07-24T07:24:02;20.50;99.90
14236;DHT22;7202;50.718;7.072;2023-07-24T07:26:31;20.50;99.90
14236;DHT22;7202;50.718;7.072;2023-07-24T07:29:00;20.50;99.90
14236;DHT22;7202;50.718;7.072;2023-07-24T07:31:30;20.60;99.90
14236;DHT22;7202;50.718;7.072;2023-07-24T07:33:59;20.70;99.90
14236;DHT22;7202;50.718;7.072;2023-07-24T07:36:27;20.70;99.90
14236;DHT22;7202;50.718;7.072;2023-07-24T07:38:56;20.80;99.90
14236;DHT22;7202;50.718;7.072;2023-07-24T07:41:25;20.80;99.90
14236;DHT22;7202;50.718;7.072;2023-07-24T07:43:54;20.90;99.90
14236;DHT22;7202;50.718;7.072;2023-07-24T07:46:23;20.90;99.90
14236;DHT22;7202;50.718;7.072;2023-07-24T07:48:53;20.80;99.90
14236;DHT22;7202;50.718;7.072;2023-07-24T07:51:21;20.80;99.90
14236;DHT22;7202;50.718;7.072;2023-07-24T07:53:52;20.70;99.90
14236;DHT22;7202;50.718;7.072;2023-07-24T07:56:21;20.70;99.90
14236;DHT22;7202;50.718;7.072;2023-07-24T07:58:50;20.70;99.90
14236;DHT22;7202;50.718;7.072;2023-07-24T08:01:18;20.60;99.90
14236;DHT22;7202;50.718;7.072;2023-07-24T08:03:47;20.70;99.90
14236;DHT22;7202;50.718;7.072;2023-07-24T08:06:17;20.80;99.90
14236;DHT22;7202;50.718;7.072;2023-07-24T08:08:45;20.80;99.90
14236;DHT22;7202;50.718;7.072;2023-07-24T08:11:14;20.90;99.90
14236;DHT22;7202;50.718;7.072;2023-07-24T08:13:43;21.00;99.90
14236;DHT22;7202;50.718;7.072;2023-07-24T08:16:14;21.00;99.90
14236;DHT22;7202;50.718;7.072;2023-07-24T08:18:46;21.00;99.90
14236;DHT22;7202;50.718;7.072;2023-07-24T08:21:16;21.10;99.90
14236;DHT22;7202;50.718;7.072;2023-07-24T08:23:45;21.10;99.90
14236;DHT22;7202;50.718;7.072;2023-07-24T08:26:13;21.10;99.90
14236;DHT22;7202;50.718;7.072;2023-07-24T08:28:42;21.20;99.90
14236;DHT22;7202;50.718;7.072;2023-07-24T08:31:11;21.20;99.90
14236;DHT22;7202;50.718;7.072;2023-07-24T08:33:39;21.20;99.90
14236;DHT22;7202;50.718;7.072;2023-07-24T08:36:08;21.20;99.90
14236;DHT22;7202;50.718;7.072;2023-07-24T08:38:40;21.20;99.90
14236;DHT22;7202;50.718;7.072;2023-07-24T08:41:11;21.20;99.90
14236;DHT22;7202;50.718;7.072;2023-07-24T08:43:40;21.30;99.90
14236;DHT22;7202;50.718;7.072;2023-07-24T08:46:10;21.40;99.90
14236;DHT22;7202;50.718;7.072;2023-07-24T08:48:40;21.60;99.90
14236;DHT22;7202;50.718;7.072;2023-07-24T08:51:11;21.80;99.90
14236;DHT22;7202;50.718;7.072;2023-07-24T08:53:43;21.90;99.90
14236;DHT22;7202;50.718;7.072;2023-07-24T08:56:12;22.00;99.90
14236;DHT22;7202;50.718;7.072;2023-07-24T08:58:41;22.10;99.90
14236;DHT22;7202;50.718;7.072;2023-07-24T09:01:10;22.20;99.90
14236;DHT22;7202;50.718;7.072;2023-07-24T09:03:39;22.20;99.90
14236;DHT22;7202;50.718;7.072;2023-07-24T09:06:07;22.20;99.90
14236;DHT22;7202;50.718;7.072;2023-07-24T09:08:37;22.20;99.90
14236;DHT22;7202;50.718;7.072;2023-07-24T09:11:09;22.20;99.90
14236;DHT22;7202;50.718;7.072;2023-07-24T09:13:41;22.10;99.90
14236;DHT22;7202;50.718;7.072;2023-07-24T09:16:21;22.10;99.90
14236;DHT22;7202;50.718;7.072;2023-07-24T09:18:50;22.00;99.90
14236;DHT22;7202;50.718;7.072;2023-07-24T09:21:29;21.90;99.90
14236;DHT22;7202;50.718;7.072;2023-07-24T09:24:08;21.90;99.90
14236;DHT22;7202;50.718;7.072;2023-07-24T09:26:48;21.90;99.90
14236;DHT22;7202;50.718;7.072;2023-07-24T09:29:17;21.80;99.90
14236;DHT22;7202;50.718;7.072;2023-07-24T09:31:46;21.80;99.90
14236;DHT22;7202;50.718;7.072;2023-07-24T09:34:18;21.90;99.90
14236;DHT22;7202;50.718;7.072;2023-07-24T09:36:47;21.90;99.90
14236;DHT22;7202;50.718;7.072;2023-07-24T09:39:22;21.90;99.90
14236;DHT22;7202;50.718;7.072;2023-07-24T09:41:52;21.90;99.90
14236;DHT22;7202;50.718;7.072;2023-07-24T09:44:25;22.00;99.90
14236;DHT22;7202;50.718;7.072;2023-07-24T09:46:55;22.00;99.90
14236;DHT22;7202;50.718;7.072;2023-07-24T09:49:26;22.00;99.90
14236;DHT22;7202;50.718;7.072;2023-07-24T09:51:58;22.10;99.90
14236;DHT22;7202;50.718;7.072;2023-07-24T09:54:32;22.10;99.90
14236;DHT22;7202;50.718;7.072;2023-07-24T09:57:10;22.20;99.90
14236;DHT22;7202;50.718;7.072;2023-07-24T09:59:48;22.20;99.90
14236;DHT22;7202;50.718;7.072;2023-07-24T10:02:17;22.30;99.90
14236;DHT22;7202;50.718;7.072;2023-07-24T10:04:47;22.30;99.90
14236;DHT22;7202;50.718;7.072;2023-07-24T10:07:17;22.40;99.90
14236;DHT22;7202;50.718;7.072;2023-07-24T10:09:49;22.40;99.90
14236;DHT22;7202;50.718;7.072;2023-07-24T10:12:21;22.50;99.90
14236;DHT22;7202;50.718;7.072;2023-07-24T10:14:50;22.60;99.90
14236;DHT22;7202;50.718;7.072;2023-07-24T10:17:34;22.70;99.90
14236;DHT22;7202;50.718;7.072;2023-07-24T10:20:05;22.80;99.90
14236;DHT22;7202;50.718;7.072;2023-07-24T10:22:35;22.90;99.90
14236;DHT22;7202;50.718;7.072;2023-07-24T10:25:05;22.90;99.90
14236;DHT22;7202;50.718;7.072;2023-07-24T10:27:39;22.90;99.90
14236;DHT22;7202;50.718;7.072;2023-07-24T10:30:10;22.90;99.90
14236;DHT22;7202;50.718;7.072;2023-07-24T10:33:06;22.90;99.90
14236;DHT22;7202;50.718;7.072;2023-07-24T10:35:40;23.00;99.90
14236;DHT22;7202;50.718;7.072;2023-07-24T10:38:09;23.00;99.90
14236;DHT22;7202;50.718;7.072;2023-07-24T10:40:39;23.10;99.90
14236;DHT22;7202;50.718;7.072;2023-07-24T10:43:10;23.20;99.90
14236;DHT22;7202;50.718;7.072;2023-07-24T10:45:41;23.20;99.90
14236;DHT22;7202;50.718;7.072;2023-07-24T10:48:10;23.30;99.90
14236;DHT22;7202;50.718;7.072;2023-07-24T10:50:40;23.30;99.90
14236;DHT22;7202;50.718;7.072;2023-07-24T10:53:09;23.40;99.90
14236;DHT22;7202;50.718;7.072;2023-07-24T10:55:38;23.40;99.90
14236;DHT22;7202;50.718;7.072;2023-07-24T10:58:09;23.40;99.90
14236;DHT22;7202;50.718;7.072;2023-07-24T11:00:38;23.40;99.90
14236;DHT22;7202;50.718;7.072;2023-07-24T11:03:08;23.40;99.90
14236;DHT22;7202;50.718;7.072;2023-07-24T11:05:39;23.40;99.90
14236;DHT22;7202;50.718;7.072;2023-07-24T11:08:10;23.40;99.90
14236;DHT22;7202;50.718;7.072;2023-07-24T11:10:45;23.50;99.90
14236;DHT22;7202;50.718;7.072;2023-07-24T11:13:16;23.50;99.90
14236;DHT22;7202;50.718;7.072;2023-07-24T11:15:46;23.50;99.90
14236;DHT22;7202;50.718;7.072;2023-07-24T11:18:15;23.50;99.90
14236;DHT22;7202;50.718;7.072;2023-07-24T11:20:45;23.50;99.90
14236;DHT22;7202;50.718;7.072;2023-07-24T11:23:14;23.60;99.90
14236;DHT22;7202;50.718;7.072;2023-07-24T11:25:44;23.70;99.90
14236;DHT22;7202;50.718;7.072;2023-07-24T11:28:15;23.80;99.90
14236;DHT22;7202;50.718;7.072;2023-07-24T11:30:44;23.90;99.90
14236;DHT22;7202;50.718;7.072;2023-07-24T11:33:15;24.00;99.90
14236;DHT22;7202;50.718;7.072;2023-07-24T11:35:48;24.20;99.90
14236;DHT22;7202;50.718;7.072;2023-07-24T11:38:16;24.20;99.90
14236;DHT22;7202;50.718;7.072;2023-07-24T11:40:45;24.30;99.90
14236;DHT22;7202;50.718;7.072;2023-07-24T11:43:17;24.20;99.90
14236;DHT22;7202;50.718;7.072;2023-07-24T11:45:47;24.20;99.90
14236;DHT22;7202;50.718;7.072;2023-07-24T11:48:20;24.10;99.90
14236;DHT22;7202;50.718;7.072;2023-07-24T11:50:50;24.10;99.90
14236;DHT22;7202;50.718;7.072;2023-07-24T11:53:21;24.00;99.90
14236;DHT22;7202;50.718;7.072;2023-07-24T11:55:51;23.90;99.90
14236;DHT22;7202;50.718;7.072;2023-07-24T11:58:22;23.80;99.90
14236;DHT22;7202;50.718;7.072;2023-07-24T12:00:51;23.70;99.90
14236;DHT22;7202;50.718;7.072;2023-07-24T12:03:21;23.60;99.90
14236;DHT22;7202;50.718;7.072;2023-07-24T12:05:50;23.40;99.90
14236;DHT22;7202;50.718;7.072;2023-07-24T12:08:20;23.30;99.90
14236;DHT22;7202;50.718;7.072;2023-07-24T12:10:51;23.20;99.90
14236;DHT22;7202;50.718;7.072;2023-07-24T12:13:18;23.10;99.90
14236;DHT22;7202;50.718;7.072;2023-07-24T12:15:49;23.10;99.90
14236;DHT22;7202;50.718;7.072;2023-07-24T12:18:18;23.00;99.90
14236;DHT22;7202;50.718;7.072;2023-07-24T12:20:47;22.90;99.90
14236;DHT22;7202;50.718;7.072;2023-07-24T12:23:15;22.90;99.90
14236;DHT22;7202;50.718;7.072;2023-07-24T12:25:44;22.90;99.90
14236;DHT22;7202;50.718;7.072;2023-07-24T12:28:13;22.80;99.90
14236;DHT22;7202;50.718;7.072;2023-07-24T12:30:42;22.80;99.90
14236;DHT22;7202;50.718;7.072;2023-07-24T12:33:12;22.60;99.90
14236;DHT22;7202;50.718;7.072;2023-07-24T12:35:41;22.30;99.90
14236;DHT22;7202;50.718;7.072;2023-07-24T12:38:09;22.00;99.90
14236;DHT22;7202;50.718;7.072;2023-07-24T12:40:38;21.80;99.90
14236;DHT22;7202;50.718;7.072;2023-07-24T12:43:07;21.60;99.90
14236;DHT22;7202;50.718;7.072;2023-07-24T12:45:35;21.30;99.90
14236;DHT22;7202;50.718;7.072;2023-07-24T12:48:04;21.20;99.90
14236;DHT22;7202;50.718;7.072;2023-07-24T12:50:34;21.20;99.90
14236;DHT22;7202;50.718;7.072;2023-07-24T12:53:03;21.30;99.90
14236;DHT22;7202;50.718;7.072;2023-07-24T12:55:37;21.40;99.90
14236;DHT22;7202;50.718;7.072;2023-07-24T12:58:06;21.60;99.90
14236;DHT22;7202;50.718;7.072;2023-07-24T13:00:35;21.80;99.90
14236;DHT22;7202;50.718;7.072;2023-07-24T13:03:03;21.80;99.90
14236;DHT22;7202;50.718;7.072;2023-07-24T13:05:34;21.90;99.90
14236;DHT22;7202;50.718;7.072;2023-07-24T13:08:03;21.90;99.90
14236;DHT22;7202;50.718;7.072;2023-07-24T13:10:31;21.90;99.90
14236;DHT22;7202;50.718;7.072;2023-07-24T13:13:00;21.80;99.90
14236;DHT22;7202;50.718;7.072;2023-07-24T13:15:29;21.80;99.90
14236;DHT22;7202;50.718;7.072;2023-07-24T13:18:01;22.00;99.90
14236;DHT22;7202;50.718;7.072;2023-07-24T13:20:51;22.20;99.90
14236;DHT22;7202;50.718;7.072;2023-07-24T13:23:20;22.30;99.90
14236;DHT22;7202;50.718;7.072;2023-07-24T13:25:49;22.40;99.90
14236;DHT22;7202;50.718;7.072;2023-07-24T13:28:18;22.60;99.90
14236;DHT22;7202;50.718;7.072;2023-07-24T13:30:47;22.60;99.90
14236;DHT22;7202;50.718;7.072;2023-07-24T13:33:15;22.70;99.90
14236;DHT22;7202;50.718;7.072;2023-07-24T13:35:44;22.80;99.90
14236;DHT22;7202;50.718;7.072;2023-07-24T13:38:16;22.80;99.90
14236;DHT22;7202;50.718;7.072;2023-07-24T13:40:48;22.80;99.90
14236;DHT22;7202;50.718;7.072;2023-07-24T13:43:17;22.70;99.90
14236;DHT22;7202;50.718;7.072;2023-07-24T13:45:46;22.60;99.90
14236;DHT22;7202;50.718;7.072;2023-07-24T13:48:14;22.50;99.90
14236;DHT22;7202;50.718;7.072;2023-07-24T13:50:43;22.30;99.90
14236;DHT22;7202;50.718;7.072;2023-07-24T13:53:11;22.10;99.90
14236;DHT22;7202;50.718;7.072;2023-07-24T13:55:41;21.60;99.90
14236;DHT22;7202;50.718;7.072;2023-07-24T13:58:10;21.20;99.90
14236;DHT22;7202;50.718;7.072;2023-07-24T14:00:39;20.90;99.90
14236;DHT22;7202;50.718;7.072;2023-07-24T14:03:07;20.60;99.90
14236;DHT22;7202;50.718;7.072;2023-07-24T14:05:36;20.30;99.90
14236;DHT22;7202;50.718;7.072;2023-07-24T14:08:23;20.20;99.90
14236;DHT22;7202;50.718;7.072;2023-07-24T14:10:53;20.20;99.90
14236;DHT22;7202;50.718;7.072;2023-07-24T14:13:22;20.20;99.90
14236;DHT22;7202;50.718;7.072;2023-07-24T14:15:51;20.20;99.90
14236;DHT22;7202;50.718;7.072;2023-07-24T14:18:20;20.20;99.90
14236;DHT22;7202;50.718;7.072;2023-07-24T14:20:48;20.10;99.90
14236;DHT22;7202;50.718;7.072;2023-07-24T14:23:19;20.00;99.90
14236;DHT22;7202;50.718;7.072;2023-07-24T14:25:48;19.90;99.90
14236;DHT22;7202;50.718;7.072;2023-07-24T14:28:21;19.90;99.90
14236;DHT22;7202;50.718;7.072;2023-07-24T14:30:49;20.00;99.90
14236;DHT22;7202;50.718;7.072;2023-07-24T14:33:19;20.10;99.90
14236;DHT22;7202;50.718;7.072;2023-07-24T14:35:49;20.20;99.90
14236;DHT22;7202;50.718;7.072;2023-07-24T14:38:18;20.20;99.90
14236;DHT22;7202;50.718;7.072;2023-07-24T14:40:46;20.30;99.90
14236;DHT22;7202;50.718;7.072;2023-07-24T14:43:15;20.50;99.90
14236;DHT22;7202;50.718;7.072;2023-07-24T14:45:45;20.60;99.90
14236;DHT22;7202;50.718;7.072;2023-07-24T14:48:15;20.80;99.90
14236;DHT22;7202;50.718;7.072;2023-07-24T14:50:44;20.90;99.90
14236;DHT22;7202;50.718;7.072;2023-07-24T14:53:12;21.00;99.90
14236;DHT22;7202;50.718;7.072;2023-07-24T14:55:41;21.10;99.90
14236;DHT22;7202;50.718;7.072;2023-07-24T14:58:10;21.10;99.90
14236;DHT22;7202;50.718;7.072;2023-07-24T15:00:39;21.20;99.90
14236;DHT22;7202;50.718;7.072;2023-07-24T15:03:09;21.30;99.90
14236;DHT22;7202;50.718;7.072;2023-07-24T15:05:37;21.30;99.90
14236;DHT22;7202;50.718;7.072;2023-07-24T15:08:06;21.40;99.90
14236;DHT22;7202;50.718;7.072;2023-07-24T15:10:34;21.60;99.90
14236;DHT22;7202;50.718;7.072;2023-07-24T15:13:03;21.70;99.90
14236;DHT22;7202;50.718;7.072;2023-07-24T15:15:32;21.80;99.90
14236;DHT22;7202;50.718;7.072;2023-07-24T15:18:00;21.80;99.90
14236;DHT22;7202;50.718;7.072;2023-07-24T15:20:32;21.80;99.90
14236;DHT22;7202;50.718;7.072;2023-07-24T15:23:00;21.80;99.90
14236;DHT22;7202;50.718;7.072;2023-07-24T15:25:29;21.70;99.90
14236;DHT22;7202;50.718;7.072;2023-07-24T15:27:58;21.70;99.90
14236;DHT22;7202;50.718;7.072;2023-07-24T15:30:26;21.60;99.90
14236;DHT22;7202;50.718;7.072;2023-07-24T15:32:55;21.60;99.90
14236;DHT22;7202;50.718;7.072;2023-07-24T15:35:24;21.60;99.90
14236;DHT22;7202;50.718;7.072;2023-07-24T15:37:54;21.70;99.90
14236;DHT22;7202;50.718;7.072;2023-07-24T15:40:22;21.60;99.90
14236;DHT22;7202;50.718;7.072;2023-07-24T15:42:51;21.60;99.90
14236;DHT22;7202;50.718;7.072;2023-07-24T15:45:19;21.60;99.90
14236;DHT22;7202;50.718;7.072;2023-07-24T15:47:48;21.60;99.90
14236;DHT22;7202;50.718;7.072;2023-07-24T15:50:17;21.50;99.90
14236;DHT22;7202;50.718;7.072;2023-07-24T15:52:45;21.50;99.90
14236;DHT22;7202;50.718;7.072;2023-07-24T15:55:15;21.40;99.90
14236;DHT22;7202;50.718;7.072;2023-07-24T15:57:44;21.40;99.90
14236;DHT22;7202;50.718;7.072;2023-07-24T16:00:13;21.40;99.90